sensor_id;sensor_type;location;lat;lon;timestamp;P1;durP1;ratioP1;P2;durP2;ratioP2
8066;SDS011;4076;48.076;9.118;2023-04-03T00:01:23;6.80;;;4.97;;
8066;SDS011;4076;48.076;9.118;2023-04-03T00:03:48;9.43;;;5.67;;
8066;SDS011;4076;48.076;9.118;2023-04-03T00:06:15;6.70;;;4.70;;
8066;SDS011;4076;48.076;9.118;2023-04-03T00:08:40;7.73;;;5.43;;
8066;SDS011;4076;48.076;9.118;2023-04-03T00:11:06;7.40;;;4.87;;
8066;SDS011;4076;48.076;9.118;2023-04-03T00:13:32;8.67;;;5.90;;
8066;SDS011;4076;48.076;9.118;2023-04-03T00:15:59;7.07;;;4.70;;
8066;SDS011;4076;48.076;9.118;2023-04-03T00:18:24;9.00;;;4.63;;
8066;SDS011;4076;48.076;9.118;2023-04-03T00:20:50;7.10;;;5.03;;
8066;SDS011;4076;48.076;9.118;2023-04-03T00:23:16;6.90;;;4.60;;
8066;SDS011;4076;48.076;9.118;2023-04-03T00:25:41;6.93;;;5.40;;
8066;SDS011;4076;48.076;9.118;2023-04-03T00:28:07;7.80;;;4.40;;
8066;SDS011;4076;48.076;9.118;2023-04-03T00:30:33;6.60;;;5.43;;
8066;SDS011;4076;48.076;9.118;2023-04-03T00:32:59;6.60;;;4.60;;
8066;SDS011;4076;48.076;9.118;2023-04-03T00:35:25;8.10;;;5.13;;
8066;SDS011;4076;48.076;9.118;2023-04-03T00:37:52;6.73;;;6.03;;
8066;SDS011;4076;48.076;9.118;2023-04-03T00:40:19;6.30;;;5.10;;
8066;SDS011;4076;48.076;9.118;2023-04-03T00:42:46;8.13;;;5.30;;
8066;SDS011;4076;48.076;9.118;2023-04-03T00:48:19;6.97;;;5.27;;
8066;SDS011;4076;48.076;9.118;2023-04-03T00:50:47;8.77;;;5.17;;
8066;SDS011;4076;48.076;9.118;2023-04-03T00:53:18;7.40;;;5.10;;
8066;SDS011;4076;48.076;9.118;2023-04-03T00:55:48;8.40;;;5.30;;
8066;SDS011;4076;48.076;9.118;2023-04-03T00:58:15;8.20;;;5.70;;
8066;SDS011;4076;48.076;9.118;2023-04-03T01:00:44;7.97;;;5.03;;
8066;SDS011;4076;48.076;9.118;2023-04-03T01:03:14;12.10;;;6.03;;
8066;SDS011;4076;48.076;9.118;2023-04-03T01:05:40;6.30;;;5.00;;
8066;SDS011;4076;48.076;9.118;2023-04-03T01:08:05;6.70;;;5.93;;
8066;SDS011;4076;48.076;9.118;2023-04-03T01:10:31;6.93;;;5.43;;
8066;SDS011;4076;48.076;9.118;2023-04-03T01:12:57;8.50;;;6.23;;
8066;SDS011;4076;48.076;9.118;2023-04-03T01:15:25;8.10;;;5.70;;
8066;SDS011;4076;48.076;9.118;2023-04-03T01:17:56;7.03;;;5.80;;
8066;SDS011;4076;48.076;9.118;2023-04-03T01:25:43;7.30;;;6.20;;
8066;SDS011;4076;48.076;9.118;2023-04-03T01:28:15;8.40;;;6.07;;
8066;SDS011;4076;48.076;9.118;2023-04-03T01:30:45;6.70;;;5.40;;
8066;SDS011;4076;48.076;9.118;2023-04-03T01:33:19;10.10;;;7.80;;
8066;SDS011;4076;48.076;9.118;2023-04-03T01:35:44;8.27;;;6.27;;
8066;SDS011;4076;48.076;9.118;2023-04-03T01:38:10;7.80;;;6.40;;
8066;SDS011;4076;48.076;9.118;2023-04-03T01:40:36;10.17;;;7.03;;
8066;SDS011;4076;48.076;9.118;2023-04-03T01:43:02;10.00;;;7.10;;
8066;SDS011;4076;48.076;9.118;2023-04-03T01:45:28;9.97;;;6.60;;
8066;SDS011;4076;48.076;9.118;2023-04-03T01:47:53;9.40;;;7.30;;
8066;SDS011;4076;48.076;9.118;2023-04-03T01:50:19;11.00;;;7.40;;
8066;SDS011;4076;48.076;9.118;2023-04-03T01:52:45;9.73;;;6.47;;
8066;SDS011;4076;48.076;9.118;2023-04-03T01:55:10;10.97;;;7.53;;
8066;SDS011;4076;48.076;9.118;2023-04-03T01:57:36;12.07;;;7.57;;
8066;SDS011;4076;48.076;9.118;2023-04-03T02:00:02;9.47;;;7.20;;
8066;SDS011;4076;48.076;9.118;2023-04-03T02:02:27;11.13;;;7.13;;
8066;SDS011;4076;48.076;9.118;2023-04-03T02:04:53;10.77;;;6.77;;
8066;SDS011;4076;48.076;9.118;2023-04-03T02:07:19;11.90;;;8.80;;
8066;SDS011;4076;48.076;9.118;2023-04-03T02:09:45;9.43;;;6.37;;
8066;SDS011;4076;48.076;9.118;2023-04-03T02:12:10;12.07;;;8.70;;
8066;SDS011;4076;48.076;9.118;2023-04-03T02:14:36;15.10;;;8.23;;
8066;SDS011;4076;48.076;9.118;2023-04-03T02:17:02;11.07;;;8.17;;
8066;SDS011;4076;48.076;9.118;2023-04-03T02:19:30;11.00;;;7.20;;
8066;SDS011;4076;48.076;9.118;2023-04-03T02:21:56;10.73;;;7.83;;
8066;SDS011;4076;48.076;9.118;2023-04-03T02:24:21;12.73;;;8.43;;
8066;SDS011;4076;48.076;9.118;2023-04-03T02:26:47;11.57;;;8.80;;
8066;SDS011;4076;48.076;9.118;2023-04-03T02:29:12;12.00;;;7.83;;
8066;SDS011;4076;48.076;9.118;2023-04-03T02:31:38;9.13;;;6.80;;
8066;SDS011;4076;48.076;9.118;2023-04-03T02:34:04;10.00;;;7.27;;
8066;SDS011;4076;48.076;9.118;2023-04-03T02:36:29;10.47;;;7.33;;
8066;SDS011;4076;48.076;9.118;2023-04-03T02:38:55;9.53;;;7.97;;
8066;SDS011;4076;48.076;9.118;2023-04-03T02:41:20;10.07;;;7.10;;
8066;SDS011;4076;48.076;9.118;2023-04-03T02:43:46;10.63;;;7.00;;
8066;SDS011;4076;48.076;9.118;2023-04-03T02:46:12;11.37;;;8.03;;
8066;SDS011;4076;48.076;9.118;2023-04-03T02:48:39;9.60;;;7.50;;
8066;SDS011;4076;48.076;9.118;2023-04-03T02:51:05;9.90;;;6.47;;
8066;SDS011;4076;48.076;9.118;2023-04-03T02:53:31;12.87;;;9.13;;
8066;SDS011;4076;48.076;9.118;2023-04-03T02:55:56;8.93;;;6.60;;
8066;SDS011;4076;48.076;9.118;2023-04-03T02:58:22;11.67;;;7.50;;
8066;SDS011;4076;48.076;9.118;2023-04-03T03:00:47;10.83;;;7.10;;
8066;SDS011;4076;48.076;9.118;2023-04-03T03:03:13;9.40;;;6.53;;
8066;SDS011;4076;48.076;9.118;2023-04-03T03:05:39;9.70;;;7.20;;
8066;SDS011;4076;48.076;9.118;2023-04-03T03:08:05;10.13;;;7.30;;
8066;SDS011;4076;48.076;9.118;2023-04-03T03:10:31;11.47;;;8.23;;
8066;SDS011;4076;48.076;9.118;2023-04-03T03:12:56;10.00;;;6.50;;
8066;SDS011;4076;48.076;9.118;2023-04-03T03:15:22;7.40;;;5.20;;
8066;SDS011;4076;48.076;9.118;2023-04-03T03:17:47;13.53;;;7.00;;
8066;SDS011;4076;48.076;9.118;2023-04-03T03:20:13;10.57;;;7.50;;
8066;SDS011;4076;48.076;9.118;2023-04-03T03:22:40;7.87;;;7.07;;
8066;SDS011;4076;48.076;9.118;2023-04-03T03:25:06;9.00;;;6.93;;
8066;SDS011;4076;48.076;9.118;2023-04-03T03:27:32;11.03;;;7.10;;
8066;SDS011;4076;48.076;9.118;2023-04-03T03:29:57;8.30;;;5.63;;
8066;SDS011;4076;48.076;9.118;2023-04-03T03:32:23;8.50;;;5.53;;
8066;SDS011;4076;48.076;9.118;2023-04-03T03:34:48;10.07;;;7.30;;
8066;SDS011;4076;48.076;9.118;2023-04-03T03:37:14;7.90;;;5.93;;
8066;SDS011;4076;48.076;9.118;2023-04-03T03:39:39;8.03;;;6.10;;
8066;SDS011;4076;48.076;9.118;2023-04-03T03:42:05;7.17;;;6.20;;
8066;SDS011;4076;48.076;9.118;2023-04-03T03:44:30;7.93;;;5.83;;
8066;SDS011;4076;48.076;9.118;2023-04-03T03:46:56;6.70;;;4.93;;
8066;SDS011;4076;48.076;9.118;2023-04-03T03:49:22;8.00;;;5.40;;
8066;SDS011;4076;48.076;9.118;2023-04-03T03:51:47;7.53;;;6.43;;
8066;SDS011;4076;48.076;9.118;2023-04-03T03:54:13;9.20;;;5.80;;
8066;SDS011;4076;48.076;9.118;2023-04-03T03:56:39;9.93;;;5.20;;
8066;SDS011;4076;48.076;9.118;2023-04-03T03:59:04;6.73;;;5.07;;
8066;SDS011;4076;48.076;9.118;2023-04-03T04:01:30;8.27;;;5.87;;
8066;SDS011;4076;48.076;9.118;2023-04-03T04:03:56;8.60;;;6.07;;
8066;SDS011;4076;48.076;9.118;2023-04-03T04:06:22;5.80;;;5.00;;
8066;SDS011;4076;48.076;9.118;2023-04-03T04:08:48;9.83;;;7.13;;
8066;SDS011;4076;48.076;9.118;2023-04-03T04:11:14;7.77;;;5.70;;
8066;SDS011;4076;48.076;9.118;2023-04-03T04:13:40;10.07;;;6.50;;
8066;SDS011;4076;48.076;9.118;2023-04-03T04:16:05;7.63;;;5.57;;
8066;SDS011;4076;48.076;9.118;2023-04-03T04:18:32;6.00;;;5.03;;
8066;SDS011;4076;48.076;9.118;2023-04-03T04:20:57;8.03;;;5.57;;
8066;SDS011;4076;48.076;9.118;2023-04-03T04:23:23;10.03;;;6.20;;
8066;SDS011;4076;48.076;9.118;2023-04-03T04:25:49;8.97;;;6.60;;
8066;SDS011;4076;48.076;9.118;2023-04-03T04:28:15;8.60;;;6.33;;
8066;SDS011;4076;48.076;9.118;2023-04-03T04:30:41;8.10;;;5.90;;
8066;SDS011;4076;48.076;9.118;2023-04-03T04:33:07;6.83;;;5.87;;
8066;SDS011;4076;48.076;9.118;2023-04-03T04:35:33;8.70;;;5.83;;
8066;SDS011;4076;48.076;9.118;2023-04-03T04:37:59;7.63;;;4.80;;
8066;SDS011;4076;48.076;9.118;2023-04-03T04:40:25;7.57;;;6.03;;
8066;SDS011;4076;48.076;9.118;2023-04-03T04:42:50;5.60;;;4.30;;
8066;SDS011;4076;48.076;9.118;2023-04-03T04:45:16;6.13;;;5.53;;
8066;SDS011;4076;48.076;9.118;2023-04-03T04:47:42;6.30;;;5.00;;
8066;SDS011;4076;48.076;9.118;2023-04-03T04:50:07;9.60;;;4.90;;
8066;SDS011;4076;48.076;9.118;2023-04-03T04:52:34;7.70;;;4.57;;
8066;SDS011;4076;48.076;9.118;2023-04-03T04:54:59;6.83;;;6.13;;
8066;SDS011;4076;48.076;9.118;2023-04-03T04:57:25;6.57;;;4.67;;
8066;SDS011;4076;48.076;9.118;2023-04-03T04:59:51;6.23;;;4.70;;
8066;SDS011;4076;48.076;9.118;2023-04-03T05:02:16;5.37;;;4.60;;
8066;SDS011;4076;48.076;9.118;2023-04-03T05:04:42;5.80;;;4.90;;
8066;SDS011;4076;48.076;9.118;2023-04-03T05:07:08;5.97;;;3.77;;
8066;SDS011;4076;48.076;9.118;2023-04-03T05:09:34;8.03;;;4.33;;
8066;SDS011;4076;48.076;9.118;2023-04-03T05:12:00;8.03;;;4.73;;
8066;SDS011;4076;48.076;9.118;2023-04-03T05:14:27;5.70;;;4.23;;
8066;SDS011;4076;48.076;9.118;2023-04-03T05:16:53;5.53;;;5.03;;
8066;SDS011;4076;48.076;9.118;2023-04-03T05:19:19;7.23;;;4.90;;
8066;SDS011;4076;48.076;9.118;2023-04-03T05:21:45;7.10;;;5.20;;
8066;SDS011;4076;48.076;9.118;2023-04-03T05:24:11;6.60;;;4.53;;
8066;SDS011;4076;48.076;9.118;2023-04-03T05:26:37;6.37;;;4.27;;
8066;SDS011;4076;48.076;9.118;2023-04-03T05:29:03;5.83;;;4.77;;
8066;SDS011;4076;48.076;9.118;2023-04-03T05:31:29;6.80;;;5.47;;
8066;SDS011;4076;48.076;9.118;2023-04-03T05:33:55;5.07;;;4.57;;
8066;SDS011;4076;48.076;9.118;2023-04-03T05:36:21;5.57;;;4.07;;
8066;SDS011;4076;48.076;9.118;2023-04-03T05:38:46;8.53;;;6.23;;
8066;SDS011;4076;48.076;9.118;2023-04-03T05:41:13;6.30;;;5.50;;
8066;SDS011;4076;48.076;9.118;2023-04-03T05:43:39;7.13;;;5.37;;
8066;SDS011;4076;48.076;9.118;2023-04-03T05:46:12;7.33;;;4.80;;
8066;SDS011;4076;48.076;9.118;2023-04-03T05:48:40;6.97;;;4.53;;
8066;SDS011;4076;48.076;9.118;2023-04-03T05:51:06;5.37;;;4.80;;
8066;SDS011;4076;48.076;9.118;2023-04-03T05:53:33;4.80;;;4.20;;
8066;SDS011;4076;48.076;9.118;2023-04-03T05:56:02;6.00;;;4.80;;
8066;SDS011;4076;48.076;9.118;2023-04-03T05:58:28;4.27;;;3.80;;
8066;SDS011;4076;48.076;9.118;2023-04-03T06:00:54;5.97;;;4.60;;
8066;SDS011;4076;48.076;9.118;2023-04-03T06:03:20;5.63;;;4.23;;
8066;SDS011;4076;48.076;9.118;2023-04-03T06:05:45;5.27;;;4.63;;
8066;SDS011;4076;48.076;9.118;2023-04-03T06:08:11;6.20;;;4.40;;
8066;SDS011;4076;48.076;9.118;2023-04-03T06:10:37;5.10;;;3.77;;
8066;SDS011;4076;48.076;9.118;2023-04-03T06:13:03;5.57;;;4.10;;
8066;SDS011;4076;48.076;9.118;2023-04-03T06:15:29;4.40;;;3.63;;
8066;SDS011;4076;48.076;9.118;2023-04-03T06:17:55;5.83;;;4.33;;
8066;SDS011;4076;48.076;9.118;2023-04-03T06:20:21;6.33;;;4.67;;
8066;SDS011;4076;48.076;9.118;2023-04-03T06:22:47;8.33;;;4.23;;
8066;SDS011;4076;48.076;9.118;2023-04-03T06:25:13;4.03;;;3.60;;
8066;SDS011;4076;48.076;9.118;2023-04-03T06:27:39;4.93;;;3.53;;
8066;SDS011;4076;48.076;9.118;2023-04-03T06:30:06;5.37;;;3.80;;
8066;SDS011;4076;48.076;9.118;2023-04-03T06:32:32;6.23;;;4.07;;
8066;SDS011;4076;48.076;9.118;2023-04-03T06:34:57;6.37;;;4.20;;
8066;SDS011;4076;48.076;9.118;2023-04-03T06:37:23;3.10;;;2.80;;
8066;SDS011;4076;48.076;9.118;2023-04-03T06:39:51;4.73;;;3.77;;
8066;SDS011;4076;48.076;9.118;2023-04-03T06:42:17;7.27;;;5.17;;
8066;SDS011;4076;48.076;9.118;2023-04-03T06:44:43;5.23;;;3.63;;
8066;SDS011;4076;48.076;9.118;2023-04-03T06:47:12;6.10;;;3.70;;
8066;SDS011;4076;48.076;9.118;2023-04-03T06:49:39;5.10;;;3.73;;
8066;SDS011;4076;48.076;9.118;2023-04-03T06:52:06;4.20;;;3.63;;
8066;SDS011;4076;48.076;9.118;2023-04-03T06:54:32;3.97;;;3.47;;
8066;SDS011;4076;48.076;9.118;2023-04-03T06:56:58;7.07;;;5.03;;
8066;SDS011;4076;48.076;9.118;2023-04-03T06:59:23;4.07;;;3.03;;
8066;SDS011;4076;48.076;9.118;2023-04-03T07:01:49;4.53;;;3.40;;
8066;SDS011;4076;48.076;9.118;2023-04-03T07:04:16;4.17;;;3.70;;
8066;SDS011;4076;48.076;9.118;2023-04-03T07:06:41;3.13;;;2.73;;
8066;SDS011;4076;48.076;9.118;2023-04-03T07:09:07;2.70;;;2.40;;
8066;SDS011;4076;48.076;9.118;2023-04-03T07:11:34;4.10;;;3.47;;
8066;SDS011;4076;48.076;9.118;2023-04-03T07:14:01;4.87;;;3.50;;
8066;SDS011;4076;48.076;9.118;2023-04-03T07:16:27;4.20;;;3.30;;
8066;SDS011;4076;48.076;9.118;2023-04-03T07:18:55;3.77;;;3.00;;
8066;SDS011;4076;48.076;9.118;2023-04-03T07:21:21;4.40;;;2.77;;
8066;SDS011;4076;48.076;9.118;2023-04-03T07:23:46;4.13;;;3.30;;
8066;SDS011;4076;48.076;9.118;2023-04-03T07:26:12;3.83;;;2.57;;
8066;SDS011;4076;48.076;9.118;2023-04-03T07:28:38;2.90;;;2.60;;
8066;SDS011;4076;48.076;9.118;2023-04-03T07:31:06;5.60;;;3.23;;
8066;SDS011;4076;48.076;9.118;2023-04-03T07:33:33;3.93;;;2.73;;
8066;SDS011;4076;48.076;9.118;2023-04-03T07:36:00;3.17;;;2.80;;
8066;SDS011;4076;48.076;9.118;2023-04-03T07:38:26;3.90;;;2.87;;
8066;SDS011;4076;48.076;9.118;2023-04-03T07:40:52;3.77;;;3.37;;
8066;SDS011;4076;48.076;9.118;2023-04-03T07:43:18;5.10;;;3.50;;
8066;SDS011;4076;48.076;9.118;2023-04-03T07:45:45;7.70;;;3.50;;
8066;SDS011;4076;48.076;9.118;2023-04-03T07:48:15;4.00;;;3.07;;
8066;SDS011;4076;48.076;9.118;2023-04-03T07:50:42;3.73;;;3.33;;
8066;SDS011;4076;48.076;9.118;2023-04-03T07:53:08;5.77;;;3.87;;
8066;SDS011;4076;48.076;9.118;2023-04-03T07:55:34;4.63;;;3.00;;
8066;SDS011;4076;48.076;9.118;2023-04-03T07:58:05;6.03;;;4.10;;
8066;SDS011;4076;48.076;9.118;2023-04-03T08:00:31;5.07;;;3.70;;
8066;SDS011;4076;48.076;9.118;2023-04-03T08:02:56;5.17;;;3.47;;
8066;SDS011;4076;48.076;9.118;2023-04-03T08:05:22;5.77;;;3.73;;
8066;SDS011;4076;48.076;9.118;2023-04-03T08:07:48;3.27;;;2.97;;
8066;SDS011;4076;48.076;9.118;2023-04-03T08:10:14;5.70;;;4.13;;
8066;SDS011;4076;48.076;9.118;2023-04-03T08:12:40;6.13;;;3.90;;
8066;SDS011;4076;48.076;9.118;2023-04-03T08:15:07;6.83;;;4.93;;
8066;SDS011;4076;48.076;9.118;2023-04-03T08:17:33;5.63;;;4.30;;
8066;SDS011;4076;48.076;9.118;2023-04-03T08:19:59;4.30;;;3.60;;
8066;SDS011;4076;48.076;9.118;2023-04-03T08:22:26;6.23;;;4.77;;
8066;SDS011;4076;48.076;9.118;2023-04-03T08:24:51;4.60;;;3.80;;
8066;SDS011;4076;48.076;9.118;2023-04-03T08:27:17;7.27;;;3.83;;
8066;SDS011;4076;48.076;9.118;2023-04-03T08:29:42;4.73;;;3.80;;
8066;SDS011;4076;48.076;9.118;2023-04-03T08:32:08;4.20;;;3.43;;
8066;SDS011;4076;48.076;9.118;2023-04-03T08:34:34;5.63;;;4.10;;
8066;SDS011;4076;48.076;9.118;2023-04-03T08:37:01;4.83;;;3.63;;
8066;SDS011;4076;48.076;9.118;2023-04-03T08:39:27;6.23;;;4.60;;
8066;SDS011;4076;48.076;9.118;2023-04-03T08:41:53;4.60;;;3.77;;
8066;SDS011;4076;48.076;9.118;2023-04-03T08:44:39;4.30;;;3.50;;
8066;SDS011;4076;48.076;9.118;2023-04-03T08:47:23;5.33;;;4.70;;
8066;SDS011;4076;48.076;9.118;2023-04-03T08:49:55;7.90;;;4.10;;
8066;SDS011;4076;48.076;9.118;2023-04-03T08:55:00;4.90;;;4.10;;
8066;SDS011;4076;48.076;9.118;2023-04-03T08:57:33;5.33;;;3.83;;
8066;SDS011;4076;48.076;9.118;2023-04-03T09:00:19;6.67;;;4.00;;
8066;SDS011;4076;48.076;9.118;2023-04-03T09:02:48;5.87;;;4.37;;
8066;SDS011;4076;48.076;9.118;2023-04-03T09:05:19;5.20;;;4.07;;
8066;SDS011;4076;48.076;9.118;2023-04-03T09:08:00;7.27;;;4.60;;
8066;SDS011;4076;48.076;9.118;2023-04-03T09:10:35;4.40;;;3.73;;
8066;SDS011;4076;48.076;9.118;2023-04-03T09:15:59;4.67;;;3.90;;
8066;SDS011;4076;48.076;9.118;2023-04-03T09:18:28;12.27;;;6.30;;
8066;SDS011;4076;48.076;9.118;2023-04-03T09:23:42;4.73;;;4.17;;
8066;SDS011;4076;48.076;9.118;2023-04-03T09:26:16;6.80;;;4.80;;
8066;SDS011;4076;48.076;9.118;2023-04-03T09:28:51;4.10;;;3.67;;
8066;SDS011;4076;48.076;9.118;2023-04-03T09:31:26;6.00;;;4.23;;
8066;SDS011;4076;48.076;9.118;2023-04-03T09:33:56;5.40;;;4.53;;
8066;SDS011;4076;48.076;9.118;2023-04-03T09:36:40;5.50;;;4.60;;
8066;SDS011;4076;48.076;9.118;2023-04-03T09:39:17;5.53;;;4.90;;
8066;SDS011;4076;48.076;9.118;2023-04-03T09:44:54;6.40;;;5.07;;
8066;SDS011;4076;48.076;9.118;2023-04-03T09:47:25;7.93;;;5.50;;
8066;SDS011;4076;48.076;9.118;2023-04-03T09:50:15;9.00;;;5.00;;
8066;SDS011;4076;48.076;9.118;2023-04-03T09:52:48;6.07;;;5.33;;
8066;SDS011;4076;48.076;9.118;2023-04-03T09:55:26;4.60;;;4.00;;
8066;SDS011;4076;48.076;9.118;2023-04-03T09:57:54;5.63;;;4.37;;
8066;SDS011;4076;48.076;9.118;2023-04-03T10:00:24;5.13;;;4.63;;
8066;SDS011;4076;48.076;9.118;2023-04-03T10:02:56;5.07;;;3.90;;
8066;SDS011;4076;48.076;9.118;2023-04-03T10:05:39;12.40;;;4.00;;
8066;SDS011;4076;48.076;9.118;2023-04-03T10:08:07;5.73;;;4.93;;
8066;SDS011;4076;48.076;9.118;2023-04-03T10:10:36;4.30;;;3.90;;
8066;SDS011;4076;48.076;9.118;2023-04-03T10:15:43;4.53;;;3.97;;
8066;SDS011;4076;48.076;9.118;2023-04-03T10:18:32;5.63;;;3.90;;
8066;SDS011;4076;48.076;9.118;2023-04-03T10:21:04;5.33;;;3.90;;
8066;SDS011;4076;48.076;9.118;2023-04-03T10:23:43;4.80;;;3.70;;
8066;SDS011;4076;48.076;9.118;2023-04-03T10:26:45;4.10;;;3.70;;
8066;SDS011;4076;48.076;9.118;2023-04-03T10:32:43;4.10;;;3.33;;
8066;SDS011;4076;48.076;9.118;2023-04-03T10:37:50;3.30;;;2.77;;
8066;SDS011;4076;48.076;9.118;2023-04-03T10:40:43;7.70;;;4.00;;
8066;SDS011;4076;48.076;9.118;2023-04-03T10:44:18;4.53;;;3.47;;
8066;SDS011;4076;48.076;9.118;2023-04-03T10:46:39;4.77;;;3.50;;
8066;SDS011;4076;48.076;9.118;2023-04-03T10:54:30;5.13;;;3.90;;
8066;SDS011;4076;48.076;9.118;2023-04-03T10:57:18;4.87;;;3.93;;
8066;SDS011;4076;48.076;9.118;2023-04-03T10:59:49;4.93;;;3.60;;
8066;SDS011;4076;48.076;9.118;2023-04-03T11:02:22;5.07;;;4.57;;
8066;SDS011;4076;48.076;9.118;2023-04-03T11:04:53;3.60;;;3.30;;
8066;SDS011;4076;48.076;9.118;2023-04-03T11:07:38;4.20;;;3.47;;
8066;SDS011;4076;48.076;9.118;2023-04-03T11:10:32;4.20;;;3.23;;
8066;SDS011;4076;48.076;9.118;2023-04-03T11:13:08;4.20;;;3.73;;
8066;SDS011;4076;48.076;9.118;2023-04-03T11:15:38;4.77;;;3.77;;
8066;SDS011;4076;48.076;9.118;2023-04-03T11:18:13;4.87;;;4.40;;
8066;SDS011;4076;48.076;9.118;2023-04-03T11:21:09;3.83;;;3.20;;
8066;SDS011;4076;48.076;9.118;2023-04-03T11:23:41;4.33;;;3.53;;
8066;SDS011;4076;48.076;9.118;2023-04-03T11:26:08;3.40;;;3.10;;
8066;SDS011;4076;48.076;9.118;2023-04-03T11:28:36;5.60;;;4.00;;
8066;SDS011;4076;48.076;9.118;2023-04-03T11:36:42;4.90;;;3.80;;
8066;SDS011;4076;48.076;9.118;2023-04-03T11:41:43;4.30;;;3.37;;
8066;SDS011;4076;48.076;9.118;2023-04-03T11:44:29;4.10;;;3.10;;
8066;SDS011;4076;48.076;9.118;2023-04-03T11:47:04;5.97;;;5.07;;
8066;SDS011;4076;48.076;9.118;2023-04-03T11:55:09;5.23;;;4.10;;
8066;SDS011;4076;48.076;9.118;2023-04-03T12:05:48;4.80;;;3.37;;
8066;SDS011;4076;48.076;9.118;2023-04-03T12:08:16;5.27;;;3.73;;
8066;SDS011;4076;48.076;9.118;2023-04-03T12:13:42;5.80;;;4.17;;
8066;SDS011;4076;48.076;9.118;2023-04-03T12:16:29;6.50;;;4.30;;
8066;SDS011;4076;48.076;9.118;2023-04-03T12:18:58;4.13;;;3.73;;
8066;SDS011;4076;48.076;9.118;2023-04-03T12:26:36;4.53;;;4.13;;
8066;SDS011;4076;48.076;9.118;2023-04-03T12:32:45;7.00;;;4.33;;
8066;SDS011;4076;48.076;9.118;2023-04-03T12:43:08;4.90;;;3.97;;
8066;SDS011;4076;48.076;9.118;2023-04-03T12:45:40;4.23;;;3.60;;
8066;SDS011;4076;48.076;9.118;2023-04-03T12:48:17;4.60;;;4.10;;
8066;SDS011;4076;48.076;9.118;2023-04-03T12:50:47;5.63;;;4.57;;
8066;SDS011;4076;48.076;9.118;2023-04-03T12:55:43;5.57;;;4.67;;
8066;SDS011;4076;48.076;9.118;2023-04-03T13:00:42;3.83;;;3.17;;
8066;SDS011;4076;48.076;9.118;2023-04-03T13:03:19;4.23;;;3.83;;
8066;SDS011;4076;48.076;9.118;2023-04-03T13:05:49;4.90;;;4.13;;
8066;SDS011;4076;48.076;9.118;2023-04-03T13:08:15;5.60;;;4.50;;
8066;SDS011;4076;48.076;9.118;2023-04-03T13:10:49;5.50;;;4.70;;
8066;SDS011;4076;48.076;9.118;2023-04-03T13:13:36;5.80;;;5.10;;
8066;SDS011;4076;48.076;9.118;2023-04-03T13:16:10;6.43;;;5.03;;
8066;SDS011;4076;48.076;9.118;2023-04-03T13:18:38;6.97;;;6.07;;
8066;SDS011;4076;48.076;9.118;2023-04-03T13:21:05;9.93;;;7.90;;
8066;SDS011;4076;48.076;9.118;2023-04-03T13:23:38;6.50;;;5.90;;
8066;SDS011;4076;48.076;9.118;2023-04-03T13:26:05;6.47;;;5.43;;
8066;SDS011;4076;48.076;9.118;2023-04-03T13:28:32;5.77;;;4.43;;
8066;SDS011;4076;48.076;9.118;2023-04-03T13:31:41;5.63;;;3.70;;
8066;SDS011;4076;48.076;9.118;2023-04-03T13:33:52;4.97;;;4.47;;
8066;SDS011;4076;48.076;9.118;2023-04-03T13:36:36;4.70;;;4.30;;
8066;SDS011;4076;48.076;9.118;2023-04-03T13:41:39;10.00;;;6.90;;
8066;SDS011;4076;48.076;9.118;2023-04-03T13:47:37;33.27;;;20.90;;
8066;SDS011;4076;48.076;9.118;2023-04-03T13:49:41;11.87;;;9.50;;
8066;SDS011;4076;48.076;9.118;2023-04-03T13:54:47;19.37;;;11.67;;
8066;SDS011;4076;48.076;9.118;2023-04-03T13:57:21;15.70;;;11.00;;
8066;SDS011;4076;48.076;9.118;2023-04-03T13:59:47;20.43;;;16.63;;
8066;SDS011;4076;48.076;9.118;2023-04-03T14:02:15;6.47;;;5.70;;
8066;SDS011;4076;48.076;9.118;2023-04-03T14:04:58;4.77;;;3.83;;
8066;SDS011;4076;48.076;9.118;2023-04-03T14:07:27;4.67;;;4.10;;
8066;SDS011;4076;48.076;9.118;2023-04-03T14:09:54;5.37;;;4.50;;
8066;SDS011;4076;48.076;9.118;2023-04-03T14:12:31;5.10;;;4.40;;
8066;SDS011;4076;48.076;9.118;2023-04-03T14:15:02;5.50;;;4.50;;
8066;SDS011;4076;48.076;9.118;2023-04-03T14:17:30;5.57;;;4.53;;
8066;SDS011;4076;48.076;9.118;2023-04-03T14:19:56;5.47;;;3.53;;
8066;SDS011;4076;48.076;9.118;2023-04-03T14:22:27;5.60;;;4.30;;
8066;SDS011;4076;48.076;9.118;2023-04-03T14:24:54;6.23;;;4.17;;
8066;SDS011;4076;48.076;9.118;2023-04-03T14:29:51;4.90;;;4.30;;
8066;SDS011;4076;48.076;9.118;2023-04-03T14:32:19;4.87;;;4.47;;
8066;SDS011;4076;48.076;9.118;2023-04-03T14:34:46;4.57;;;3.60;;
8066;SDS011;4076;48.076;9.118;2023-04-03T14:37:13;5.30;;;4.80;;
8066;SDS011;4076;48.076;9.118;2023-04-03T14:39:42;3.97;;;3.30;;
8066;SDS011;4076;48.076;9.118;2023-04-03T14:42:13;8.30;;;5.07;;
8066;SDS011;4076;48.076;9.118;2023-04-03T14:44:43;4.87;;;3.80;;
8066;SDS011;4076;48.076;9.118;2023-04-03T14:47:10;4.00;;;3.37;;
8066;SDS011;4076;48.076;9.118;2023-04-03T14:49:38;3.50;;;3.20;;
8066;SDS011;4076;48.076;9.118;2023-04-03T14:52:03;6.47;;;3.80;;
8066;SDS011;4076;48.076;9.118;2023-04-03T14:54:29;4.93;;;4.37;;
8066;SDS011;4076;48.076;9.118;2023-04-03T14:56:55;5.20;;;4.70;;
8066;SDS011;4076;48.076;9.118;2023-04-03T14:59:23;3.90;;;3.50;;
8066;SDS011;4076;48.076;9.118;2023-04-03T15:01:49;10.77;;;4.27;;
8066;SDS011;4076;48.076;9.118;2023-04-03T15:04:16;6.03;;;4.97;;
8066;SDS011;4076;48.076;9.118;2023-04-03T15:06:43;6.90;;;5.70;;
8066;SDS011;4076;48.076;9.118;2023-04-03T15:09:15;7.60;;;5.00;;
8066;SDS011;4076;48.076;9.118;2023-04-03T15:11:45;6.70;;;6.00;;
8066;SDS011;4076;48.076;9.118;2023-04-03T15:14:11;5.00;;;3.40;;
8066;SDS011;4076;48.076;9.118;2023-04-03T15:16:36;7.83;;;4.60;;
8066;SDS011;4076;48.076;9.118;2023-04-03T15:19:02;5.60;;;3.63;;
8066;SDS011;4076;48.076;9.118;2023-04-03T15:21:28;3.83;;;3.23;;
8066;SDS011;4076;48.076;9.118;2023-04-03T15:23:53;4.13;;;3.73;;
8066;SDS011;4076;48.076;9.118;2023-04-03T15:26:19;4.90;;;4.03;;
8066;SDS011;4076;48.076;9.118;2023-04-03T15:28:45;8.80;;;5.80;;
8066;SDS011;4076;48.076;9.118;2023-04-03T15:31:11;4.83;;;3.60;;
8066;SDS011;4076;48.076;9.118;2023-04-03T15:33:37;3.23;;;2.77;;
8066;SDS011;4076;48.076;9.118;2023-04-03T15:36:03;4.73;;;3.13;;
8066;SDS011;4076;48.076;9.118;2023-04-03T15:38:31;5.03;;;3.30;;
8066;SDS011;4076;48.076;9.118;2023-04-03T15:40:56;3.70;;;3.40;;
8066;SDS011;4076;48.076;9.118;2023-04-03T15:43:22;4.03;;;3.53;;
8066;SDS011;4076;48.076;9.118;2023-04-03T15:45:48;5.60;;;3.10;;
8066;SDS011;4076;48.076;9.118;2023-04-03T15:48:14;4.43;;;3.50;;
8066;SDS011;4076;48.076;9.118;2023-04-03T15:50:40;3.27;;;2.67;;
8066;SDS011;4076;48.076;9.118;2023-04-03T15:53:06;4.00;;;3.37;;
8066;SDS011;4076;48.076;9.118;2023-04-03T15:55:33;3.80;;;3.03;;
8066;SDS011;4076;48.076;9.118;2023-04-03T15:58:00;3.73;;;3.43;;
8066;SDS011;4076;48.076;9.118;2023-04-03T16:00:27;4.73;;;3.77;;
8066;SDS011;4076;48.076;9.118;2023-04-03T16:03:16;7.90;;;4.83;;
8066;SDS011;4076;48.076;9.118;2023-04-03T16:05:41;6.10;;;3.80;;
8066;SDS011;4076;48.076;9.118;2023-04-03T16:08:07;3.70;;;3.00;;
8066;SDS011;4076;48.076;9.118;2023-04-03T16:10:34;4.10;;;3.17;;
8066;SDS011;4076;48.076;9.118;2023-04-03T16:13:00;4.80;;;3.80;;
8066;SDS011;4076;48.076;9.118;2023-04-03T16:15:26;4.37;;;3.87;;
8066;SDS011;4076;48.076;9.118;2023-04-03T16:17:52;3.43;;;3.00;;
8066;SDS011;4076;48.076;9.118;2023-04-03T16:20:19;9.30;;;3.67;;
8066;SDS011;4076;48.076;9.118;2023-04-03T16:22:46;5.63;;;3.47;;
8066;SDS011;4076;48.076;9.118;2023-04-03T16:25:12;4.87;;;3.50;;
8066;SDS011;4076;48.076;9.118;2023-04-03T16:27:38;3.37;;;3.07;;
8066;SDS011;4076;48.076;9.118;2023-04-03T16:30:04;4.47;;;3.27;;
8066;SDS011;4076;48.076;9.118;2023-04-03T16:32:31;3.90;;;2.97;;
8066;SDS011;4076;48.076;9.118;2023-04-03T16:34:57;6.93;;;3.70;;
8066;SDS011;4076;48.076;9.118;2023-04-03T16:37:23;3.10;;;2.80;;
8066;SDS011;4076;48.076;9.118;2023-04-03T16:39:49;4.03;;;2.80;;
8066;SDS011;4076;48.076;9.118;2023-04-03T16:42:15;4.50;;;3.63;;
8066;SDS011;4076;48.076;9.118;2023-04-03T16:44:40;4.60;;;3.03;;
8066;SDS011;4076;48.076;9.118;2023-04-03T16:47:06;4.00;;;2.97;;
8066;SDS011;4076;48.076;9.118;2023-04-03T16:49:32;4.53;;;2.30;;
8066;SDS011;4076;48.076;9.118;2023-04-03T16:51:59;3.33;;;2.63;;